Time;durP1;ratioP1;P1;durP2;ratioP2;P2;SDS_P1;SDS_P2;PMS_P1;PMS_P2;Temp;Humidity;BMP_temperature;BMP_pressure;BME280_temperature;BME280_humidity;BME280_pressure;Samples;Min_cycle;Max_cycle;Signal;HPM_P1;HPM_P2
2023/12/20 00:00:19;;;;;;;16.35;15.50;;;;;;;;;;5013985;28;20050;-91
2023/12/20 00:02:46;;;;;;;18.35;17.42;;;;;;;;;;5014369;28;20100;-91
2023/12/20 00:05:13;;;;;;;21.27;20.30;;;;;;;;;;5014059;28;20050;-92
2023/12/20 00:07:40;;;;;;;24.55;23.23;;;;;;;;;;5014288;28;20053;-91
2023/12/20 00:10:07;;;;;;;25.67;24.42;;;;;;;;;;5014204;28;20112;-90
2023/12/20 00:12:35;;;;;;;26.77;25.52;;;;;;;;;;5013785;28;20050;-91
2023/12/20 00:15:01;;;;;;;17.85;16.98;;;;;;;;;;5013904;28;20050;-91
2023/12/20 00:17:28;;;;;;;19.67;18.80;;;;;;;;;;5011623;28;20096;-91
2023/12/20 00:19:54;;;;;;;15.77;14.73;;;;;;;;;;4994441;28;20050;-90
2023/12/20 00:22:21;;;;;;;15.10;14.50;;;;;;;;;;4994006;28;20396;-90
2023/12/20 00:24:47;;;;;;;14.98;14.13;;;;;;;;;;4994214;28;20050;-90
2023/12/20 00:27:14;;;;;;;22.35;21.08;;;;;;;;;;4993929;28;20565;-90
2023/12/20 00:29:43;;;;;;;18.83;17.90;;;;;;;;;;4994239;28;20054;-91
2023/12/20 00:32:09;;;;;;;21.75;20.80;;;;;;;;;;4994274;28;20085;-90
2023/12/20 00:34:35;;;;;;;16.52;15.77;;;;;;;;;;4993855;28;20392;-90
2023/12/20 00:37:02;;;;;;;20.67;19.77;;;;;;;;;;4994223;28;20050;-91
2023/12/20 00:39:28;;;;;;;22.77;21.60;;;;;;;;;;5004818;28;20045;-91
2023/12/20 00:41:55;;;;;;;18.08;17.40;;;;;;;;;;5013930;28;20384;-91
2023/12/20 00:44:21;;;;;;;14.30;13.60;;;;;;;;;;5013762;28;20049;-91
2023/12/20 00:46:49;;;;;;;18.95;17.40;;;;;;;;;;5013943;28;20458;-92
2023/12/20 00:49:16;;;;;;;16.13;15.43;;;;;;;;;;5013460;28;20111;-90
2023/12/20 00:51:42;;;;;;;16.50;15.80;;;;;;;;;;5013446;28;20510;-91
2023/12/20 00:54:09;;;;;;;16.33;15.43;;;;;;;;;;5015552;28;20111;-90
2023/12/20 00:56:36;;;;;;;20.23;18.63;;;;;;;;;;5017533;28;20475;-91
2023/12/20 00:59:02;;;;;;;19.38;18.48;;;;;;;;;;5017477;28;20050;-90
2023/12/20 01:01:29;;;;;;;26.65;25.63;;;;;;;;;;5016546;28;20050;-89
2023/12/20 01:03:57;;;;;;;17.60;16.90;;;;;;;;;;5014661;28;20454;-91
2023/12/20 01:06:23;;;;;;;17.80;16.98;;;;;;;;;;5013623;28;20046;-91
2023/12/20 01:08:50;;;;;;;21.30;20.10;;;;;;;;;;5013064;28;20050;-91
2023/12/20 01:11:16;;;;;;;12.27;11.68;;;;;;;;;;5013519;28;20053;-90
2023/12/20 01:13:43;;;;;;;19.08;18.08;;;;;;;;;;5013173;28;20042;-91
2023/12/20 01:16:11;;;;;;;22.45;21.35;;;;;;;;;;5013224;28;20049;-91
2023/12/20 01:18:38;;;;;;;16.83;15.90;;;;;;;;;;5013527;28;20045;-91
2023/12/20 01:21:06;;;;;;;20.63;19.73;;;;;;;;;;5013240;28;20574;-91
2023/12/20 01:23:33;;;;;;;14.38;13.45;;;;;;;;;;5012852;28;20077;-91
2023/12/20 01:26:00;;;;;;;16.42;15.52;;;;;;;;;;5013070;28;20459;-91
2023/12/20 01:28:26;;;;;;;23.27;22.23;;;;;;;;;;5013272;28;20498;-91
2023/12/20 01:30:53;;;;;;;16.25;14.80;;;;;;;;;;5013150;28;20046;-90
2023/12/20 01:33:20;;;;;;;15.18;14.48;;;;;;;;;;5013462;28;20050;-90
2023/12/20 01:35:46;;;;;;;13.88;13.25;;;;;;;;;;5013166;28;20092;-90
2023/12/20 01:38:14;;;;;;;13.95;13.20;;;;;;;;;;5013488;28;20116;-91
2023/12/20 01:40:41;;;;;;;20.25;19.42;;;;;;;;;;5013053;28;20384;-91
2023/12/20 01:43:08;;;;;;;16.20;15.43;;;;;;;;;;5013312;28;20054;-91
2023/12/20 01:45:35;;;;;;;21.88;20.85;;;;;;;;;;5013315;28;20077;-91
2023/12/20 01:48:02;;;;;;;18.40;17.25;;;;;;;;;;5013419;28;20104;-90
2023/12/20 01:50:29;;;;;;;18.48;17.77;;;;;;;;;;5013145;28;20053;-91
2023/12/20 01:52:57;;;;;;;14.13;13.52;;;;;;;;;;5013213;28;20124;-91
2023/12/20 01:55:26;;;;;;;19.00;18.05;;;;;;;;;;5013194;28;20050;-89
2023/12/20 01:57:52;;;;;;;21.08;20.05;;;;;;;;;;5012817;28;20053;-90
2023/12/20 02:00:22;;;;;;;13.38;12.73;;;;;;;;;;5012784;28;20049;-89
2023/12/20 02:02:50;;;;;;;18.08;17.30;;;;;;;;;;5012716;28;20057;-90
2023/12/20 02:05:17;;;;;;;21.17;20.38;;;;;;;;;;5013450;28;20458;-91
2023/12/20 02:07:43;;;;;;;16.13;14.90;;;;;;;;;;5016755;28;20111;-91
2023/12/20 02:10:10;;;;;;;22.10;20.95;;;;;;;;;;5016317;28;20049;-91
2023/12/20 02:12:38;;;;;;;21.45;20.48;;;;;;;;;;5016321;28;20553;-91
2023/12/20 02:15:05;;;;;;;25.65;24.52;;;;;;;;;;5016581;28;20049;-91
2023/12/20 02:17:33;;;;;;;14.40;13.50;;;;;;;;;;5016107;28;20057;-91
2023/12/20 02:19:59;;;;;;;15.93;15.20;;;;;;;;;;5016089;28;20104;-91
2023/12/20 02:22:27;;;;;;;14.85;14.05;;;;;;;;;;5016064;28;20458;-91
2023/12/20 02:24:54;;;;;;;15.95;15.35;;;;;;;;;;4996798;28;20104;-91
2023/12/20 02:27:21;;;;;;;16.60;15.38;;;;;;;;;;5011347;28;20049;-91
2023/12/20 02:29:48;;;;;;;22.88;21.95;;;;;;;;;;5016201;28;20050;-90
2023/12/20 02:32:14;;;;;;;23.23;22.00;;;;;;;;;;5015798;28;20403;-90
2023/12/20 02:34:41;;;;;;;18.85;17.90;;;;;;;;;;5016178;28;20042;-90
2023/12/20 02:37:07;;;;;;;23.33;22.38;;;;;;;;;;5015867;28;20046;-90
2023/12/20 02:39:35;;;;;;;19.42;18.30;;;;;;;;;;5015762;28;20100;-90
2023/12/20 02:42:02;;;;;;;25.63;24.50;;;;;;;;;;5016088;28;20161;-90
2023/12/20 02:44:28;;;;;;;18.95;18.02;;;;;;;;;;5016083;28;20442;-91
2023/12/20 02:46:55;;;;;;;22.00;20.85;;;;;;;;;;5015558;28;20058;-90
2023/12/20 02:49:21;;;;;;;18.70;17.90;;;;;;;;;;5015841;28;20457;-89
2023/12/20 02:51:48;;;;;;;14.45;13.85;;;;;;;;;;5009964;28;20042;-89
2023/12/20 02:54:14;;;;;;;18.65;17.50;;;;;;;;;;5015939;28;20058;-88
2023/12/20 02:56:42;;;;;;;20.65;19.67;;;;;;;;;;5017158;28;20514;-89
2023/12/20 02:59:09;;;;;;;25.40;24.20;;;;;;;;;;5016488;28;20054;-88
2023/12/20 03:01:36;;;;;;;17.95;17.25;;;;;;;;;;5016539;28;20050;-89
2023/12/20 03:04:02;;;;;;;19.90;19.08;;;;;;;;;;5016538;28;20155;-89
2023/12/20 03:06:29;;;;;;;14.98;14.35;;;;;;;;;;5015652;28;20080;-89
2023/12/20 03:08:55;;;;;;;18.35;17.52;;;;;;;;;;5015265;28;20100;-89
2023/12/20 03:11:22;;;;;;;13.32;12.63;;;;;;;;;;5015663;28;20184;-89
2023/12/20 03:13:49;;;;;;;12.35;11.85;;;;;;;;;;5015458;28;20112;-89
2023/12/20 03:16:16;;;;;;;16.75;16.00;;;;;;;;;;5014953;28;20100;-89
2023/12/20 03:18:43;;;;;;;15.80;15.10;;;;;;;;;;5015159;28;20518;-89
2023/12/20 03:21:10;;;;;;;15.65;14.68;;;;;;;;;;5014974;28;20053;-89
2023/12/20 03:23:36;;;;;;;17.55;16.73;;;;;;;;;;5014797;28;20469;-89
2023/12/20 03:26:03;;;;;;;15.45;14.43;;;;;;;;;;5015089;28;20137;-89
2023/12/20 03:28:30;;;;;;;16.05;15.35;;;;;;;;;;5014741;28;20058;-88
2023/12/20 03:30:58;;;;;;;15.00;14.40;;;;;;;;;;5014943;28;20049;-90
2023/12/20 03:33:24;;;;;;;20.40;19.48;;;;;;;;;;5015019;28;20104;-90
2023/12/20 03:35:51;;;;;;;14.57;13.88;;;;;;;;;;5015011;28;20058;-89
2023/12/20 03:38:18;;;;;;;14.68;13.77;;;;;;;;;;5014377;28;20500;-89
2023/12/20 03:40:44;;;;;;;23.98;23.05;;;;;;;;;;5014573;28;20096;-89
2023/12/20 03:43:11;;;;;;;17.83;16.48;;;;;;;;;;5014562;28;20050;-89
2023/12/20 03:45:37;;;;;;;13.90;13.20;;;;;;;;;;5014492;28;20050;-89
2023/12/20 03:48:06;;;;;;;22.52;21.40;;;;;;;;;;5014392;28;20050;-92
2023/12/20 03:50:32;;;;;;;14.25;13.65;;;;;;;;;;5014354;28;20065;-89
2023/12/20 03:52:59;;;;;;;14.10;13.57;;;;;;;;;;5014032;28;20050;-90
2023/12/20 03:55:25;;;;;;;22.73;21.63;;;;;;;;;;5014688;28;20116;-90
2023/12/20 03:57:52;;;;;;;12.90;12.23;;;;;;;;;;5014330;28;20391;-89
2023/12/20 04:00:18;;;;;;;20.42;19.30;;;;;;;;;;5014504;28;20045;-90
2023/12/20 04:02:45;;;;;;;21.88;20.85;;;;;;;;;;5014318;28;20104;-90
2023/12/20 04:05:13;;;;;;;24.38;23.38;;;;;;;;;;5014176;28;20046;-90
2023/12/20 04:07:39;;;;;;;21.48;20.58;;;;;;;;;;5014377;28;20112;-91
2023/12/20 04:10:06;;;;;;;28.60;27.13;;;;;;;;;;5014335;28;20045;-91
2023/12/20 04:12:33;;;;;;;19.48;18.67;;;;;;;;;;5014360;28;20049;-90
2023/12/20 04:15:00;;;;;;;20.80;19.98;;;;;;;;;;5014398;28;20108;-91
2023/12/20 04:17:26;;;;;;;25.10;23.67;;;;;;;;;;5014181;28;20058;-90
2023/12/20 04:19:53;;;;;;;22.50;21.65;;;;;;;;;;5014177;28;20120;-90
2023/12/20 04:22:21;;;;;;;15.35;14.18;;;;;;;;;;5013530;28;20096;-90
2023/12/20 04:24:47;;;;;;;19.05;17.85;;;;;;;;;;5014007;28;20104;-89
2023/12/20 04:27:14;;;;;;;18.85;17.98;;;;;;;;;;5013999;28;20807;-90
2023/12/20 04:29:40;;;;;;;17.75;17.05;;;;;;;;;;5013177;28;20046;-89
2023/12/20 04:32:07;;;;;;;15.70;14.93;;;;;;;;;;5013923;28;20046;-90
2023/12/20 04:34:33;;;;;;;15.18;14.52;;;;;;;;;;5013950;28;20096;-90
2023/12/20 04:37:01;;;;;;;18.77;18.05;;;;;;;;;;5013592;28;20549;-90
2023/12/20 04:39:29;;;;;;;17.05;16.20;;;;;;;;;;5013778;28;20392;-90
2023/12/20 04:41:55;;;;;;;18.65;17.73;;;;;;;;;;5013972;28;20112;-90
2023/12/20 04:44:22;;;;;;;17.75;16.92;;;;;;;;;;5013620;28;20045;-89
2023/12/20 04:46:48;;;;;;;20.23;17.65;;;;;;;;;;5013862;28;20112;-90
2023/12/20 04:49:15;;;;;;;20.33;19.23;;;;;;;;;;5013964;28;20123;-90
2023/12/20 04:51:41;;;;;;;15.57;14.80;;;;;;;;;;5013503;28;20046;-90
2023/12/20 04:54:09;;;;;;;20.00;19.00;;;;;;;;;;5013397;28;20049;-90
2023/12/20 04:56:37;;;;;;;24.80;23.73;;;;;;;;;;5013651;28;20054;-90
2023/12/20 04:59:03;;;;;;;21.63;20.30;;;;;;;;;;5013674;28;20104;-89
2023/12/20 05:01:30;;;;;;;16.55;15.55;;;;;;;;;;5013957;28;20077;-92
2023/12/20 05:03:56;;;;;;;13.85;13.25;;;;;;;;;;5013689;28;20049;-89
2023/12/20 05:06:23;;;;;;;19.77;18.73;;;;;;;;;;5013448;28;20049;-89
2023/12/20 05:08:49;;;;;;;16.17;15.02;;;;;;;;;;5014014;28;20100;-89
2023/12/20 05:11:16;;;;;;;15.75;15.02;;;;;;;;;;5013681;28;20042;-89
2023/12/20 05:13:43;;;;;;;19.02;18.30;;;;;;;;;;5013956;28;20092;-89
2023/12/20 05:16:10;;;;;;;17.95;17.02;;;;;;;;;;5013229;28;20042;-89
2023/12/20 05:18:36;;;;;;;17.10;16.33;;;;;;;;;;5014032;28;20054;-89
2023/12/20 05:21:03;;;;;;;15.13;14.27;;;;;;;;;;5012864;28;20049;-90
2023/12/20 05:23:30;;;;;;;15.38;14.50;;;;;;;;;;5013212;28;20046;-89
2023/12/20 05:25:56;;;;;;;16.02;15.32;;;;;;;;;;5013223;28;20557;-89
2023/12/20 05:28:23;;;;;;;19.00;18.15;;;;;;;;;;5013106;28;20054;-89
2023/12/20 05:30:50;;;;;;;18.23;17.42;;;;;;;;;;5013235;28;20104;-90
2023/12/20 05:33:17;;;;;;;16.38;15.38;;;;;;;;;;5013099;28;20050;-89
2023/12/20 05:35:44;;;;;;;15.23;14.30;;;;;;;;;;5013460;28;20123;-90
2023/12/20 05:38:10;;;;;;;14.98;14.30;;;;;;;;;;5012662;28;20567;-89
2023/12/20 05:40:37;;;;;;;18.50;17.55;;;;;;;;;;5015750;28;20053;-89
2023/12/20 05:43:03;;;;;;;13.43;12.80;;;;;;;;;;5017217;28;20046;-89
2023/12/20 05:45:29;;;;;;;18.13;17.35;;;;;;;;;;5016955;28;20495;-89
2023/12/20 05:47:57;;;;;;;17.77;17.05;;;;;;;;;;5017029;28;20057;-89
2023/12/20 05:50:23;;;;;;;12.55;11.98;;;;;;;;;;5017087;28;20049;-92
2023/12/20 05:52:50;;;;;;;16.73;16.00;;;;;;;;;;5016598;28;20107;-91
2023/12/20 05:55:16;;;;;;;14.25;13.23;;;;;;;;;;5016355;28;20533;-90
2023/12/20 05:57:43;;;;;;;18.50;17.77;;;;;;;;;;5016411;28;20108;-90
2023/12/20 06:00:10;;;;;;;22.17;20.90;;;;;;;;;;5016889;28;20141;-91
2023/12/20 06:02:37;;;;;;;20.77;19.63;;;;;;;;;;5016381;28;20458;-90
2023/12/20 06:05:06;;;;;;;23.15;22.13;;;;;;;;;;5016872;28;20160;-90
2023/12/20 06:07:32;;;;;;;19.70;18.70;;;;;;;;;;5016188;28;20096;-90
2023/12/20 06:09:59;;;;;;;20.00;19.08;;;;;;;;;;5016597;28;20531;-90
2023/12/20 06:12:26;;;;;;;28.92;27.20;;;;;;;;;;5016268;28;20104;-89
2023/12/20 06:14:53;;;;;;;24.23;23.23;;;;;;;;;;5016596;28;20068;-90
2023/12/20 06:17:19;;;;;;;17.25;16.25;;;;;;;;;;5016307;28;20062;-90
2023/12/20 06:19:48;;;;;;;17.63;16.73;;;;;;;;;;5016258;28;20050;-90
2023/12/20 06:22:15;;;;;;;22.63;21.45;;;;;;;;;;5016120;28;20045;-90
2023/12/20 06:24:42;;;;;;;16.65;15.75;;;;;;;;;;5015386;28;20451;-89
2023/12/20 06:27:08;;;;;;;16.95;16.10;;;;;;;;;;5016028;28;20045;-91
2023/12/20 06:29:35;;;;;;;21.95;21.00;;;;;;;;;;5016373;28;20512;-90
2023/12/20 06:32:01;;;;;;;17.65;16.75;;;;;;;;;;5016357;28;20483;-92
2023/12/20 06:34:28;;;;;;;23.33;22.25;;;;;;;;;;5016349;28;20046;-92
2023/12/20 06:36:55;;;;;;;16.45;15.40;;;;;;;;;;5017414;28;20061;-90
2023/12/20 06:39:22;;;;;;;17.42;16.42;;;;;;;;;;5013664;28;20046;-89
2023/12/20 06:41:49;;;;;;;17.40;16.58;;;;;;;;;;5014895;28;20113;-90
2023/12/20 06:44:15;;;;;;;28.90;27.77;;;;;;;;;;5016406;28;20050;-89
2023/12/20 06:46:42;;;;;;;23.20;22.10;;;;;;;;;;5015863;28;20054;-90
2023/12/20 06:49:08;;;;;;;17.95;16.98;;;;;;;;;;5015983;28;20127;-90
2023/12/20 06:51:35;;;;;;;17.33;16.42;;;;;;;;;;5015043;28;20277;-89
2023/12/20 06:54:02;;;;;;;22.35;21.13;;;;;;;;;;5015108;28;20096;-89
2023/12/20 06:56:30;;;;;;;14.27;13.57;;;;;;;;;;5012719;28;20057;-89
2023/12/20 06:58:56;;;;;;;16.98;16.20;;;;;;;;;;5015785;28;20046;-90
2023/12/20 07:01:23;;;;;;;15.52;14.63;;;;;;;;;;5015877;28;20120;-90
2023/12/20 07:03:50;;;;;;;17.42;16.58;;;;;;;;;;5015463;28;20463;-90
2023/12/20 07:06:16;;;;;;;19.17;18.30;;;;;;;;;;5015968;28;20050;-89
2023/12/20 07:08:43;;;;;;;31.70;30.27;;;;;;;;;;5012295;28;20123;-90
2023/12/20 07:11:09;;;;;;;16.67;16.00;;;;;;;;;;5015211;28;20458;-90
2023/12/20 07:13:37;;;;;;;21.80;20.58;;;;;;;;;;5003472;28;20042;-90
2023/12/20 07:16:04;;;;;;;17.13;16.33;;;;;;;;;;5012517;28;20053;-90
2023/12/20 07:18:31;;;;;;;19.70;18.60;;;;;;;;;;5015115;28;20084;-91
2023/12/20 07:20:57;;;;;;;16.73;15.13;;;;;;;;;;5016451;28;20466;-90
2023/12/20 07:23:25;;;;;;;22.55;21.58;;;;;;;;;;5015321;28;20092;-90
2023/12/20 07:25:52;;;;;;;21.88;20.23;;;;;;;;;;5014989;28;20050;-90
2023/12/20 07:28:18;;;;;;;26.00;24.63;;;;;;;;;;5012964;28;20050;-89
2023/12/20 07:30:46;;;;;;;14.23;13.45;;;;;;;;;;5013702;28;20050;-90
2023/12/20 07:33:13;;;;;;;17.33;16.33;;;;;;;;;;5021805;28;20034;-91
2023/12/20 07:35:40;;;;;;;22.02;20.50;;;;;;;;;;5022396;28;20515;-90
2023/12/20 07:38:06;;;;;;;14.82;13.88;;;;;;;;;;5020491;28;20057;-89
2023/12/20 07:40:33;;;;;;;24.55;23.48;;;;;;;;;;5019216;28;20082;-90
2023/12/20 07:42:59;;;;;;;41.15;39.50;;;;;;;;;;5020300;28;20100;-91
2023/12/20 07:45:26;;;;;;;39.63;38.15;;;;;;;;;;5014691;28;20054;-91
2023/12/20 07:47:54;;;;;;;65.20;62.58;;;;;;;;;;5019002;28;20054;-90
2023/12/20 07:50:21;;;;;;;86.43;83.38;;;;;;;;;;5017632;28;20046;-90
2023/12/20 07:52:47;;;;;;;114.82;110.97;;;;;;;;;;5017377;28;20042;-89
2023/12/20 07:55:14;;;;;;;72.38;69.10;;;;;;;;;;5012148;28;20057;-90
2023/12/20 07:57:40;;;;;;;83.07;79.25;;;;;;;;;;5017526;28;20112;-90
2023/12/20 08:00:07;;;;;;;60.75;58.40;;;;;;;;;;5017586;28;20053;-90
2023/12/20 08:02:34;;;;;;;53.97;51.88;;;;;;;;;;5017633;28;20045;-90
2023/12/20 08:05:02;;;;;;;65.50;62.88;;;;;;;;;;5020768;28;20050;-90
2023/12/20 08:07:28;;;;;;;78.47;75.45;;;;;;;;;;5018346;28;20462;-91
2023/12/20 08:09:56;;;;;;;40.95;37.90;;;;;;;;;;5014607;28;20049;-91
2023/12/20 08:12:23;;;;;;;80.60;77.10;;;;;;;;;;5019766;28;20053;-91
2023/12/20 08:14:49;;;;;;;74.45;71.70;;;;;;;;;;5021221;28;20049;-91
2023/12/20 08:17:18;;;;;;;72.03;69.10;;;;;;;;;;5019423;28;20107;-90
2023/12/20 08:19:45;;;;;;;28.63;27.15;;;;;;;;;;5014163;28;20072;-91
2023/12/20 08:22:13;;;;;;;35.45;33.72;;;;;;;;;;5013861;28;20045;-90
2023/12/20 08:24:39;;;;;;;61.17;58.63;;;;;;;;;;5013702;28;20046;-91
2023/12/20 08:27:06;;;;;;;52.67;50.53;;;;;;;;;;5014174;28;20054;-90
2023/12/20 08:29:32;;;;;;;44.05;41.60;;;;;;;;;;5013665;28;20053;-90
2023/12/20 08:32:00;;;;;;;55.15;52.50;;;;;;;;;;5013579;28;20104;-90
2023/12/20 08:34:26;;;;;;;40.08;38.33;;;;;;;;;;5014063;28;20096;-91
2023/12/20 08:36:53;;;;;;;51.05;48.88;;;;;;;;;;5014021;28;20049;-91
2023/12/20 08:39:21;;;;;;;50.55;48.70;;;;;;;;;;5019167;28;20065;-91
2023/12/20 08:41:47;;;;;;;36.90;35.38;;;;;;;;;;5014986;28;20050;-91
2023/12/20 08:44:14;;;;;;;41.42;38.72;;;;;;;;;;5022053;28;20162;-92
2023/12/20 08:46:40;;;;;;;49.58;46.67;;;;;;;;;;5020961;28;20045;-91
2023/12/20 08:49:08;;;;;;;44.40;42.20;;;;;;;;;;5013458;28;20050;-91
2023/12/20 08:51:35;;;;;;;50.10;47.90;;;;;;;;;;5013660;28;20054;-92
2023/12/20 08:54:01;;;;;;;47.35;44.95;;;;;;;;;;5013499;28;20041;-93
2023/12/20 08:56:29;;;;;;;42.25;39.53;;;;;;;;;;5014475;28;20526;-91
2023/12/20 08:58:56;;;;;;;36.90;35.25;;;;;;;;;;5013940;28;20458;-91
2023/12/20 09:01:22;;;;;;;35.67;33.90;;;;;;;;;;5013664;28;20103;-91
2023/12/20 09:03:49;;;;;;;27.08;25.85;;;;;;;;;;5014528;28;20050;-91
2023/12/20 09:06:15;;;;;;;29.40;28.17;;;;;;;;;;5013957;28;20461;-91
2023/12/20 09:08:42;;;;;;;30.88;28.98;;;;;;;;;;5015533;28;20105;-95
2023/12/20 09:11:08;;;;;;;33.05;31.38;;;;;;;;;;5021472;28;20046;-96
2023/12/20 09:13:36;;;;;;;21.92;20.60;;;;;;;;;;5017770;28;20050;-96
2023/12/20 09:16:04;;;;;;;27.55;26.20;;;;;;;;;;5019096;28;20049;-95
2023/12/20 09:18:30;;;;;;;26.67;25.08;;;;;;;;;;5019545;28;20100;-95
2023/12/20 09:21:05;;;;;;;33.63;31.45;;;;;;;;;;5019516;28;20058;-94
2023/12/20 09:23:32;;;;;;;33.30;31.48;;;;;;;;;;5021541;28;20124;-96
2023/12/20 09:25:58;;;;;;;43.45;41.38;;;;;;;;;;5029140;28;20049;-96
2023/12/20 09:28:25;;;;;;;33.78;32.05;;;;;;;;;;5039442;22;20108;-73
2023/12/20 09:30:53;;;;;;;26.58;25.45;;;;;;;;;;5015177;28;20049;-73
2023/12/20 09:33:19;;;;;;;36.55;34.72;;;;;;;;;;5009827;28;20049;-73
2023/12/20 09:35:46;;;;;;;35.72;33.08;;;;;;;;;;5015154;28;20104;-74
2023/12/20 09:38:13;;;;;;;31.52;29.80;;;;;;;;;;5014572;28;20050;-73
2023/12/20 09:40:42;;;;;;;30.70;28.50;;;;;;;;;;5015067;28;20045;-74
2023/12/20 09:43:11;;;;;;;27.52;26.13;;;;;;;;;;5014529;28;20491;-75
2023/12/20 09:45:38;;;;;;;21.05;20.13;;;;;;;;;;5014959;28;20100;-73
2023/12/20 09:48:06;;;;;;;25.25;23.40;;;;;;;;;;5015122;28;20050;-74
2023/12/20 09:50:33;;;;;;;33.80;32.05;;;;;;;;;;5014938;28;20046;-75
2023/12/20 09:53:01;;;;;;;28.27;26.55;;;;;;;;;;5014069;28;20574;-73
2023/12/20 09:55:28;;;;;;;32.90;31.35;;;;;;;;;;5014036;28;20111;-74
2023/12/20 09:57:55;;;;;;;28.65;26.63;;;;;;;;;;5014632;28;20061;-73
2023/12/20 10:00:21;;;;;;;30.88;28.88;;;;;;;;;;5014687;28;20558;-73
2023/12/20 10:02:51;;;;;;;38.10;36.05;;;;;;;;;;5014696;28;20462;-74
2023/12/20 10:05:20;;;;;;;30.13;28.50;;;;;;;;;;5007941;28;20104;-73
2023/12/20 10:07:46;;;;;;;28.05;26.02;;;;;;;;;;5013936;28;20459;-74
2023/12/20 10:10:14;;;;;;;30.27;28.55;;;;;;;;;;5013376;28;20107;-73
2023/12/20 10:12:40;;;;;;;22.60;21.40;;;;;;;;;;5014291;28;20125;-75
2023/12/20 10:15:07;;;;;;;28.75;27.17;;;;;;;;;;5014261;28;20100;-73
2023/12/20 10:17:33;;;;;;;27.52;26.02;;;;;;;;;;5014283;28;20054;-73
2023/12/20 10:20:00;;;;;;;28.20;26.75;;;;;;;;;;5014255;28;20462;-73
2023/12/20 10:22:29;;;;;;;31.60;29.48;;;;;;;;;;5013298;28;20060;-73
2023/12/20 10:24:57;;;;;;;25.10;23.23;;;;;;;;;;5013960;28;20498;-73
2023/12/20 10:27:23;;;;;;;29.63;28.17;;;;;;;;;;4996151;28;20499;-73
2023/12/20 10:29:50;;;;;;;28.33;26.58;;;;;;;;;;5014193;28;20124;-74
2023/12/20 10:32:23;;;;;;;29.33;27.13;;;;;;;;;;5013415;28;20053;-73
2023/12/20 10:34:50;;;;;;;26.92;25.40;;;;;;;;;;5008464;28;20089;-72
2023/12/20 10:37:16;;;;;;;25.00;23.65;;;;;;;;;;5011077;28;20054;-73
2023/12/20 10:39:44;;;;;;;18.30;17.33;;;;;;;;;;5013850;28;20046;-73
2023/12/20 10:42:12;;;;;;;25.88;23.88;;;;;;;;;;5013885;28;20081;-73
2023/12/20 10:44:39;;;;;;;22.70;21.63;;;;;;;;;;5014094;28;20729;-74
2023/12/20 10:47:05;;;;;;;25.17;23.40;;;;;;;;;;5013341;28;20049;-73
2023/12/20 10:49:31;;;;;;;24.13;22.50;;;;;;;;;;5013513;28;20046;-73
2023/12/20 10:51:59;;;;;;;22.77;20.75;;;;;;;;;;5009977;28;20099;-73
2023/12/20 10:54:26;;;;;;;29.77;28.00;;;;;;;;;;5013528;28;20088;-73
2023/12/20 10:56:54;;;;;;;20.27;19.02;;;;;;;;;;5013350;28;20561;-73
2023/12/20 10:59:22;;;;;;;21.50;20.38;;;;;;;;;;5013185;28;20054;-72
2023/12/20 11:01:49;;;;;;;26.23;23.95;;;;;;;;;;5013230;28;20060;-72
2023/12/20 11:04:16;;;;;;;24.05;22.65;;;;;;;;;;5012623;28;20096;-71
2023/12/20 11:06:47;;;;;;;30.30;28.27;;;;;;;;;;5013045;28;20049;-71
2023/12/20 11:09:17;;;;;;;28.60;26.58;;;;;;;;;;5013359;28;20046;-72
2023/12/20 11:11:50;;;;;;;14.25;13.63;;;;;;;;;;5011652;28;20054;-73
2023/12/20 11:14:21;;;;;;;16.45;15.75;;;;;;;;;;5012602;28;20049;-73
2023/12/20 11:16:47;;;;;;;20.10;18.65;;;;;;;;;;5013556;28;20499;-72
2023/12/20 11:19:14;;;;;;;35.53;33.38;;;;;;;;;;5013476;28;20151;-72
2023/12/20 11:21:41;;;;;;;21.60;20.58;;;;;;;;;;5008060;28;20052;-74
2023/12/20 11:24:08;;;;;;;22.02;19.77;;;;;;;;;;5004456;28;20046;-74
2023/12/20 11:26:34;;;;;;;26.40;24.90;;;;;;;;;;5000296;28;20050;-74
2023/12/20 11:29:15;;;;;;;32.80;30.92;;;;;;;;;;5002086;28;20495;-75
2023/12/20 11:31:43;;;;;;;29.40;27.35;;;;;;;;;;5006447;28;20507;-74
2023/12/20 11:34:14;;;;;;;24.45;22.23;;;;;;;;;;5004830;28;20046;-73
2023/12/20 11:36:40;;;;;;;22.52;20.95;;;;;;;;;;5013513;28;20052;-73
2023/12/20 11:39:10;;;;;;;39.58;36.55;;;;;;;;;;5012752;28;20100;-72
2023/12/20 11:41:37;;;;;;;27.10;25.42;;;;;;;;;;5000398;28;20518;-72
2023/12/20 11:44:05;;;;;;;26.55;24.40;;;;;;;;;;5003304;28;20460;-72
2023/12/20 11:46:33;;;;;;;27.75;25.90;;;;;;;;;;5001855;28;20054;-72
2023/12/20 11:49:01;;;;;;;27.48;26.02;;;;;;;;;;5002940;28;20058;-73
2023/12/20 11:51:28;;;;;;;25.35;23.85;;;;;;;;;;5000149;28;20054;-71
2023/12/20 11:53:54;;;;;;;32.30;29.98;;;;;;;;;;5006838;28;20049;-71
2023/12/20 11:56:21;;;;;;;19.67;18.45;;;;;;;;;;5008810;28;20443;-71
2023/12/20 11:58:48;;;;;;;28.42;26.48;;;;;;;;;;5011927;28;20137;-71
2023/12/20 12:01:15;;;;;;;31.00;28.85;;;;;;;;;;5011684;28;20056;-71
2023/12/20 12:03:42;;;;;;;28.67;26.85;;;;;;;;;;5012429;28;20490;-72
2023/12/20 12:06:10;;;;;;;29.65;27.88;;;;;;;;;;5012661;28;20129;-71
2023/12/20 12:08:37;;;;;;;33.30;30.55;;;;;;;;;;5012506;28;20049;-72
2023/12/20 12:11:04;;;;;;;26.05;24.15;;;;;;;;;;5012502;28;20057;-72
2023/12/20 12:13:30;;;;;;;31.60;29.60;;;;;;;;;;5008758;28;20046;-71
2023/12/20 12:15:57;;;;;;;27.20;25.85;;;;;;;;;;5010358;28;20049;-71
2023/12/20 12:18:24;;;;;;;30.23;27.50;;;;;;;;;;5011917;28;20700;-72
2023/12/20 12:20:50;;;;;;;28.45;26.10;;;;;;;;;;5012261;28;20050;-71
2023/12/20 12:23:23;;;;;;;33.40;31.05;;;;;;;;;;5003146;28;20073;-73
2023/12/20 12:25:50;;;;;;;29.30;26.33;;;;;;;;;;5008119;28;20050;-72
2023/12/20 12:28:16;;;;;;;30.17;27.98;;;;;;;;;;5012429;28;20262;-71
2023/12/20 12:30:43;;;;;;;34.10;31.70;;;;;;;;;;5011781;28;20054;-72
2023/12/20 12:33:09;;;;;;;24.40;23.00;;;;;;;;;;4994017;28;20061;-70
2023/12/20 12:35:36;;;;;;;38.33;35.80;;;;;;;;;;4992531;28;20570;-70
2023/12/20 12:38:03;;;;;;;41.05;38.08;;;;;;;;;;4992555;28;20050;-70
2023/12/20 12:40:36;;;;;;;25.73;23.23;;;;;;;;;;4995282;28;20085;-70
2023/12/20 12:43:02;;;;;;;31.20;28.90;;;;;;;;;;5011446;28;20073;-70
2023/12/20 12:45:29;;;;;;;33.55;30.63;;;;;;;;;;5009772;28;20093;-70
2023/12/20 12:47:56;;;;;;;29.92;27.20;;;;;;;;;;5011956;28;20053;-70
2023/12/20 12:50:22;;;;;;;37.05;34.60;;;;;;;;;;5011553;28;20073;-70
2023/12/20 12:52:49;;;;;;;33.72;30.95;;;;;;;;;;5011990;28;20053;-70
2023/12/20 12:55:15;;;;;;;25.88;23.27;;;;;;;;;;5001360;28;20104;-70
2023/12/20 12:57:43;;;;;;;25.75;22.08;;;;;;;;;;5023603;28;20049;-71
2023/12/20 13:00:11;;;;;;;32.35;29.00;;;;;;;;;;5003497;28;20084;-71
2023/12/20 13:02:41;;;;;;;31.52;29.13;;;;;;;;;;5005147;28;20051;-70
2023/12/20 13:05:08;;;;;;;34.65;32.35;;;;;;;;;;5002252;28;20047;-70
2023/12/20 13:07:35;;;;;;;30.23;27.42;;;;;;;;;;5014943;28;20541;-70
2023/12/20 13:10:01;;;;;;;24.27;22.00;;;;;;;;;;5017070;28;20056;-70
2023/12/20 13:12:29;;;;;;;29.45;27.48;;;;;;;;;;5027990;28;20061;-70
2023/12/20 13:14:57;;;;;;;28.35;25.55;;;;;;;;;;5016759;28;20062;-70
2023/12/20 13:17:23;;;;;;;28.83;26.38;;;;;;;;;;5022458;28;20042;-70
2023/12/20 13:19:50;;;;;;;30.90;28.50;;;;;;;;;;5024382;28;20103;-70
2023/12/20 13:22:16;;;;;;;25.25;23.27;;;;;;;;;;5014863;28;20086;-70
2023/12/20 13:24:44;;;;;;;29.27;27.77;;;;;;;;;;5027891;28;20427;-70
2023/12/20 13:27:10;;;;;;;24.73;22.50;;;;;;;;;;5010301;28;20050;-71
2023/12/20 13:29:37;;;;;;;26.30;24.17;;;;;;;;;;5022013;28;20454;-70
2023/12/20 13:32:05;;;;;;;26.05;24.30;;;;;;;;;;5009805;28;20047;-71
2023/12/20 13:34:31;;;;;;;26.33;24.23;;;;;;;;;;5024349;28;20049;-70
2023/12/20 13:36:58;;;;;;;23.10;21.08;;;;;;;;;;5016945;28;20045;-70
2023/12/20 13:39:25;;;;;;;23.33;21.10;;;;;;;;;;5028142;28;20041;-70
2023/12/20 13:41:51;;;;;;;27.27;25.45;;;;;;;;;;5002988;28;20046;-70
2023/12/20 13:44:17;;;;;;;24.58;22.52;;;;;;;;;;5006261;28;20458;-70
2023/12/20 13:46:45;;;;;;;27.20;24.75;;;;;;;;;;5011609;28;20116;-71
2023/12/20 13:49:13;;;;;;;31.27;28.50;;;;;;;;;;5001868;28;20475;-70
2023/12/20 13:51:40;;;;;;;29.67;27.48;;;;;;;;;;5001508;28;20054;-71
2023/12/20 13:54:06;;;;;;;31.23;28.67;;;;;;;;;;4999136;28;20191;-70
2023/12/20 13:56:33;;;;;;;32.03;29.40;;;;;;;;;;5007267;28;20065;-70
2023/12/20 13:59:00;;;;;;;32.70;30.25;;;;;;;;;;5001162;28;20077;-70
2023/12/20 14:01:27;;;;;;;26.35;24.23;;;;;;;;;;5009277;28;20380;-70
2023/12/20 14:03:53;;;;;;;23.92;22.23;;;;;;;;;;5007322;28;20077;-70
2023/12/20 14:06:21;;;;;;;26.70;22.88;;;;;;;;;;5005525;28;20553;-72
2023/12/20 14:08:48;;;;;;;22.75;20.98;;;;;;;;;;5003710;28;20050;-71
2023/12/20 14:11:15;;;;;;;33.92;31.05;;;;;;;;;;5000282;28;20396;-70
2023/12/20 14:13:43;;;;;;;28.63;25.38;;;;;;;;;;5009451;28;20042;-70